createdAt,value
2017-11-17T00:00:34.429Z,0
2017-11-17T00:01:14.825Z,0
2017-11-17T00:01:55.285Z,0
2017-11-17T00:02:35.753Z,0
2017-11-17T00:03:16.140Z,0
2017-11-17T00:03:56.524Z,0
2017-11-17T00:04:36.941Z,0
2017-11-17T00:05:17.383Z,0
2017-11-17T00:05:57.790Z,0
2017-11-17T00:06:38.239Z,0
2017-11-17T00:07:18.661Z,0
2017-11-17T00:07:59.062Z,0
2017-11-17T00:08:39.474Z,0
2017-11-17T00:09:19.810Z,0
2017-11-17T00:10:00.239Z,0
2017-11-17T00:10:40.657Z,0
2017-11-17T00:11:21.005Z,0
2017-11-17T00:12:01.482Z,0
2017-11-17T00:12:41.842Z,0
2017-11-17T00:13:22.237Z,0
2017-11-17T00:14:02.594Z,0
2017-11-17T00:14:43.016Z,0
2017-11-17T00:15:23.476Z,0
2017-11-17T00:16:03.902Z,0
2017-11-17T00:16:44.351Z,0
2017-11-17T00:17:24.636Z,0
2017-11-17T00:18:05.059Z,0
2017-11-17T00:18:45.487Z,0
2017-11-17T00:19:25.890Z,0
2017-11-17T00:20:06.360Z,0
2017-11-17T00:20:46.794Z,0
2017-11-17T00:21:27.195Z,0
2017-11-17T00:22:07.574Z,0
2017-11-17T00:22:47.986Z,0
2017-11-17T00:23:28.362Z,0
2017-11-17T00:24:08.758Z,0
2017-11-17T00:24:49.249Z,0
2017-11-17T00:25:29.649Z,0
2017-11-17T00:26:10.057Z,0
2017-11-17T00:26:50.505Z,0
2017-11-17T00:27:30.858Z,0
2017-11-17T00:28:11.210Z,0
2017-11-17T00:28:51.674Z,0
2017-11-17T00:29:32.138Z,0
2017-11-17T00:30:12.388Z,0
2017-11-17T00:30:52.790Z,0
2017-11-17T00:31:33.305Z,0
2017-11-17T00:32:13.720Z,0
2017-11-17T00:32:54.125Z,0
2017-11-17T00:33:34.584Z,0
2017-11-17T00:34:15.012Z,0
2017-11-17T00:34:55.427Z,0
2017-11-17T00:35:35.786Z,0
2017-11-17T00:36:16.249Z,0
2017-11-17T00:36:56.686Z,0
2017-11-17T00:37:37.080Z,0
2017-11-17T00:38:17.507Z,0
2017-11-17T00:38:57.940Z,0
2017-11-17T00:39:38.301Z,0
2017-11-17T00:40:18.822Z,0
2017-11-17T00:40:59.198Z,0
2017-11-17T00:41:39.625Z,0
2017-11-17T00:42:20.095Z,0
2017-11-17T00:43:00.463Z,0
2017-11-17T00:43:41.003Z,0
2017-11-17T00:44:21.416Z,0
2017-11-17T00:45:01.831Z,0
2017-11-17T00:45:42.328Z,0
2017-11-17T00:46:22.711Z,0
2017-11-17T00:47:03.211Z,0
2017-11-17T00:47:43.617Z,0
2017-11-17T00:48:24.026Z,0
2017-11-17T00:49:04.443Z,0
2017-11-17T00:49:44.755Z,0
2017-11-17T00:50:25.184Z,0
2017-11-17T00:51:05.584Z,0
2017-11-17T00:51:46.137Z,0
2017-11-17T00:52:26.697Z,0
2017-11-17T00:53:06.995Z,0
2017-11-17T00:53:47.314Z,0
2017-11-17T00:54:27.790Z,0
2017-11-17T00:55:08.164Z,0
2017-11-17T00:55:48.578Z,0
2017-11-17T00:56:29.008Z,0
2017-11-17T00:57:09.511Z,0
2017-11-17T00:57:49.878Z,0
2017-11-17T00:58:30.358Z,0
2017-11-17T00:59:10.744Z,0
2017-11-17T00:59:51.141Z,0
2017-11-17T01:00:31.648Z,0
2017-11-17T01:01:12.044Z,0
2017-11-17T01:01:52.403Z,0
2017-11-17T01:02:32.884Z,0
2017-11-17T01:03:13.273Z,0
2017-11-17T01:03:53.839Z,0
2017-11-17T01:04:34.151Z,0
2017-11-17T01:05:14.630Z,0
2017-11-17T01:05:55.112Z,0
2017-11-17T01:06:35.502Z,0
2017-11-17T01:07:15.879Z,0
2017-11-17T01:07:56.312Z,0
2017-11-17T01:08:36.767Z,0
2017-11-17T01:09:17.101Z,0
2017-11-17T01:09:57.481Z,0
2017-11-17T01:10:38.022Z,0
2017-11-17T01:11:18.379Z,0
2017-11-17T01:11:58.785Z,0
2017-11-17T01:12:39.248Z,0
2017-11-17T01:13:19.579Z,0
2017-11-17T01:13:59.953Z,0
2017-11-17T01:14:40.371Z,0
2017-11-17T01:15:20.844Z,0
2017-11-17T01:16:01.213Z,0
2017-11-17T01:16:41.664Z,0
2017-11-17T01:17:22.080Z,0
2017-11-17T01:18:02.499Z,0
2017-11-17T01:18:42.891Z,0
2017-11-17T01:19:23.313Z,0
2017-11-17T01:20:03.726Z,0
2017-11-17T01:20:44.114Z,0
2017-11-17T01:21:24.482Z,0
2017-11-17T01:22:04.982Z,0
2017-11-17T01:22:45.325Z,0
2017-11-17T01:23:25.682Z,0
2017-11-17T01:24:06.122Z,0
2017-11-17T01:24:46.554Z,0
2017-11-17T01:25:26.961Z,0
2017-11-17T01:26:07.365Z,0
2017-11-17T01:26:47.898Z,0
2017-11-17T01:27:28.145Z,0
2017-11-17T01:28:08.658Z,0
2017-11-17T01:28:49.153Z,0
2017-11-17T01:29:29.520Z,0
2017-11-17T01:30:09.888Z,0
2017-11-17T01:30:50.340Z,0
2017-11-17T01:31:30.717Z,0
2017-11-17T01:32:11.107Z,0
2017-11-17T01:32:51.553Z,0
2017-11-17T01:33:31.921Z,0
2017-11-17T01:34:12.334Z,0
2017-11-17T01:34:52.706Z,0
2017-11-17T01:35:33.077Z,0
2017-11-17T01:36:13.504Z,0
2017-11-17T01:36:53.980Z,0
2017-11-17T01:37:34.311Z,0
2017-11-17T01:38:14.712Z,0
2017-11-17T01:38:55.171Z,0
2017-11-17T01:39:35.561Z,0
2017-11-17T01:40:15.971Z,0
2017-11-17T01:40:56.412Z,0
2017-11-17T01:41:36.842Z,0
2017-11-17T01:42:17.182Z,0
2017-11-17T01:42:57.594Z,0
2017-11-17T01:43:38.046Z,0
2017-11-17T01:44:18.457Z,0
2017-11-17T01:44:58.948Z,0
2017-11-17T01:45:39.307Z,0
2017-11-17T01:46:19.694Z,0
2017-11-17T01:47:00.132Z,0
2017-11-17T01:47:40.505Z,0
2017-11-17T01:48:20.904Z,0
2017-11-17T01:49:01.306Z,0
2017-11-17T01:49:41.673Z,0
2017-11-17T01:50:22.073Z,0
2017-11-17T01:51:02.467Z,0
2017-11-17T01:51:42.894Z,0
2017-11-17T01:52:23.287Z,0
2017-11-17T01:53:03.677Z,0
2017-11-17T01:53:44.061Z,0
2017-11-17T01:54:24.492Z,0
2017-11-17T01:55:04.866Z,0
2017-11-17T01:55:45.302Z,0
2017-11-17T01:56:25.695Z,0
2017-11-17T01:57:06.108Z,0
2017-11-17T01:57:46.507Z,0
2017-11-17T01:58:26.889Z,0
2017-11-17T01:59:07.303Z,0
2017-11-17T01:59:47.659Z,0
2017-11-17T02:00:28.092Z,0
2017-11-17T02:01:08.555Z,0
2017-11-17T02:01:48.962Z,0
2017-11-17T02:02:29.308Z,0
2017-11-17T02:03:09.724Z,0
2017-11-17T02:03:50.141Z,0
2017-11-17T02:04:30.582Z,0
2017-11-17T02:07:03.532Z,0
2017-11-17T02:07:43.700Z,0
2017-11-17T02:08:24.102Z,0
2017-11-17T02:09:04.547Z,0
2017-11-17T02:09:44.954Z,0
2017-11-17T02:10:25.334Z,0
2017-11-17T02:11:05.761Z,0
2017-11-17T02:11:46.091Z,0
2017-11-17T02:12:26.476Z,0
2017-11-17T02:13:06.919Z,0
2017-11-17T02:13:47.264Z,0
2017-11-17T02:14:27.692Z,0
2017-11-17T02:15:08.138Z,0
2017-11-17T02:15:48.502Z,0
2017-11-17T02:16:28.902Z,0
2017-11-17T02:17:09.335Z,0
2017-11-17T02:17:49.798Z,0
2017-11-17T02:18:30.189Z,0
2017-11-17T02:19:10.645Z,0
2017-11-17T02:19:51.095Z,0
2017-11-17T02:20:31.470Z,0
2017-11-17T02:21:11.882Z,0
2017-11-17T02:21:52.327Z,0
2017-11-17T02:22:32.684Z,0
2017-11-17T02:23:13.112Z,0
2017-11-17T02:23:53.460Z,0
2017-11-17T02:24:33.959Z,0
2017-11-17T02:25:14.416Z,0
2017-11-17T02:25:54.755Z,0
2017-11-17T02:26:35.166Z,0
2017-11-17T02:27:15.593Z,0
2017-11-17T02:27:55.990Z,0
2017-11-17T02:28:36.443Z,0
2017-11-17T02:29:16.849Z,0
2017-11-17T02:29:57.230Z,0
2017-11-17T02:30:37.683Z,0
2017-11-17T02:31:18.069Z,0
2017-11-17T02:31:58.433Z,0
2017-11-17T02:32:38.830Z,0
2017-11-17T02:33:19.319Z,0
2017-11-17T02:33:59.701Z,0
2017-11-17T02:34:40.117Z,0
2017-11-17T02:35:20.512Z,0
2017-11-17T02:36:00.932Z,0
2017-11-17T02:36:41.361Z,0
2017-11-17T02:37:21.776Z,0
2017-11-17T02:38:02.199Z,0
2017-11-17T02:38:42.585Z,0
2017-11-17T02:39:22.956Z,0
2017-11-17T02:40:03.330Z,0
2017-11-17T02:40:43.744Z,0
2017-11-17T02:41:24.116Z,0
2017-11-17T02:42:04.497Z,0
2017-11-17T02:42:44.939Z,0
2017-11-17T02:43:25.327Z,0
2017-11-17T02:44:05.802Z,0
2017-11-17T02:44:46.137Z,0
2017-11-17T02:45:26.558Z,0
2017-11-17T02:46:06.977Z,0
2017-11-17T02:46:47.392Z,0
2017-11-17T02:47:27.782Z,0
2017-11-17T02:48:08.174Z,0
2017-11-17T02:48:48.599Z,0
2017-11-17T02:49:28.956Z,0
2017-11-17T02:50:09.370Z,0
2017-11-17T02:50:49.825Z,0
2017-11-17T02:51:30.262Z,0
2017-11-17T02:52:10.724Z,0
2017-11-17T02:52:51.105Z,0
2017-11-17T02:53:31.511Z,0
2017-11-17T02:54:11.886Z,0
2017-11-17T02:54:52.310Z,0
2017-11-17T02:55:32.743Z,0
2017-11-17T02:56:13.103Z,0
2017-11-17T02:56:53.489Z,0
2017-11-17T02:57:33.885Z,0
2017-11-17T02:58:14.338Z,0
2017-11-17T02:58:54.742Z,0
2017-11-17T02:59:35.120Z,0
2017-11-17T03:00:15.576Z,0
2017-11-17T03:00:55.953Z,0
2017-11-17T03:01:36.314Z,0
2017-11-17T03:02:16.723Z,0
2017-11-17T03:02:57.189Z,0
2017-11-17T03:03:37.575Z,0
2017-11-17T03:04:18.011Z,0
2017-11-17T03:04:58.416Z,0
2017-11-17T03:05:38.847Z,0
2017-11-17T03:06:19.209Z,0
2017-11-17T03:06:59.689Z,0
2017-11-17T03:07:40.049Z,0
2017-11-17T03:08:20.464Z,0
2017-11-17T03:09:00.859Z,0
2017-11-17T03:09:41.293Z,0
2017-11-17T03:10:21.736Z,0
2017-11-17T03:11:02.159Z,0
2017-11-17T03:11:42.535Z,0
2017-11-17T03:12:22.969Z,0
2017-11-17T03:13:03.318Z,0
2017-11-17T03:13:43.754Z,0
2017-11-17T03:14:24.171Z,0
2017-11-17T03:15:04.566Z,0
2017-11-17T03:15:45.046Z,0
2017-11-17T03:16:25.362Z,0
2017-11-17T03:17:05.883Z,0
2017-11-17T03:17:46.256Z,0
2017-11-17T03:18:26.707Z,0
2017-11-17T03:19:07.119Z,0
2017-11-17T03:19:47.580Z,0
2017-11-17T03:20:28.008Z,0
2017-11-17T03:21:08.385Z,0
2017-11-17T03:21:48.809Z,0
2017-11-17T03:22:29.197Z,0
2017-11-17T03:23:09.622Z,0
2017-11-17T03:23:50.003Z,0
2017-11-17T03:24:30.391Z,0
2017-11-17T03:25:10.855Z,0
2017-11-17T03:25:51.245Z,0
2017-11-17T03:26:31.641Z,0
2017-11-17T03:27:12.099Z,0
2017-11-17T03:27:52.462Z,0
2017-11-17T03:28:32.925Z,0
2017-11-17T03:29:13.352Z,0
2017-11-17T03:29:53.751Z,0
2017-11-17T03:30:34.241Z,0
2017-11-17T03:31:14.587Z,0
2017-11-17T03:31:54.969Z,0
2017-11-17T03:32:35.483Z,0
2017-11-17T03:33:15.921Z,0
2017-11-17T03:33:56.409Z,0
2017-11-17T03:34:37.062Z,0
2017-11-17T03:35:17.381Z,0
2017-11-17T03:35:57.816Z,0
2017-11-17T03:36:38.248Z,0
2017-11-17T03:37:18.768Z,0
2017-11-17T03:37:59.085Z,0
2017-11-17T03:38:39.487Z,0
2017-11-17T03:39:19.958Z,0
2017-11-17T03:40:00.427Z,0
2017-11-17T03:40:41.283Z,0
2017-11-17T03:41:21.373Z,0
2017-11-17T03:42:01.702Z,0
2017-11-17T03:42:42.212Z,0
2017-11-17T03:43:22.832Z,0
2017-11-17T03:44:03.167Z,0
2017-11-17T03:44:43.671Z,0
2017-11-17T03:45:24.037Z,0
2017-11-17T03:46:04.438Z,0
2017-11-17T03:46:44.866Z,0
2017-11-17T03:47:25.374Z,0
2017-11-17T03:48:05.758Z,0
2017-11-17T03:48:46.178Z,0
2017-11-17T03:49:26.729Z,0
2017-11-17T03:50:07.224Z,0
2017-11-17T03:50:47.608Z,0
2017-11-17T03:51:28.004Z,0
2017-11-17T03:52:08.507Z,0
2017-11-17T03:52:48.869Z,0
2017-11-17T03:53:29.426Z,0
2017-11-17T03:54:09.711Z,0
2017-11-17T03:54:50.161Z,0
2017-11-17T03:55:30.546Z,0
2017-11-17T03:56:11.044Z,0
2017-11-17T03:56:51.497Z,0
2017-11-17T03:57:31.819Z,0
2017-11-17T03:58:12.314Z,0
2017-11-17T03:58:52.736Z,0
2017-11-17T03:59:33.139Z,0
2017-11-17T04:00:13.656Z,0
2017-11-17T04:00:54.171Z,0
2017-11-17T04:01:34.651Z,0
2017-11-17T04:02:15.127Z,0
2017-11-17T04:02:55.569Z,0
2017-11-17T04:03:35.929Z,0
2017-11-17T04:53:19.065Z,0
2017-11-17T04:53:57.716Z,0
2017-11-17T04:54:38.151Z,0
2017-11-17T04:55:18.442Z,0
2017-11-17T04:55:58.929Z,0
2017-11-17T04:56:39.442Z,0
2017-11-17T04:57:19.825Z,0
2017-11-17T04:58:00.321Z,0
2017-11-17T04:58:40.757Z,0
2017-11-17T04:59:21.202Z,0
2017-11-17T05:00:01.591Z,0
2017-11-17T05:00:42.016Z,0
2017-11-17T05:01:22.389Z,0
2017-11-17T05:02:02.828Z,0
2017-11-17T05:02:44.566Z,0
2017-11-17T05:03:24.929Z,0
2017-11-17T05:04:06.076Z,0
2017-11-17T05:04:46.441Z,0
2017-11-17T05:05:26.935Z,0
2017-11-17T05:06:07.777Z,0
2017-11-17T05:06:48.251Z,0
2017-11-17T05:07:28.764Z,0
2017-11-17T05:08:09.125Z,0
2017-11-17T05:08:49.568Z,0
2017-11-17T05:09:30.261Z,0
2017-11-17T05:10:11.779Z,0
2017-11-17T05:10:52.186Z,0
2017-11-17T05:11:32.672Z,0
2017-11-17T05:12:13.183Z,0
2017-11-17T05:12:53.702Z,0
2017-11-17T05:13:34.956Z,0
2017-11-17T05:14:15.405Z,0
2017-11-17T05:14:55.944Z,0
2017-11-17T05:15:36.522Z,0
2017-11-17T05:16:16.985Z,0
2017-11-17T05:16:57.367Z,0
2017-11-17T05:17:38.374Z,0
2017-11-17T05:18:18.831Z,0
2017-11-17T05:18:59.414Z,0
2017-11-17T05:19:40.003Z,0
2017-11-17T05:20:22.439Z,0
2017-11-17T05:21:02.619Z,0
2017-11-17T05:21:43.070Z,0
2017-11-17T05:22:23.446Z,0
2017-11-17T05:23:03.858Z,0
2017-11-17T05:23:44.232Z,0
2017-11-17T05:24:24.678Z,0
2017-11-17T05:25:05.037Z,0
2017-11-17T05:25:45.493Z,0
2017-11-17T05:26:25.923Z,0
2017-11-17T05:27:06.472Z,0
2017-11-17T05:27:46.943Z,0
2017-11-17T05:28:27.400Z,0
2017-11-17T05:29:07.926Z,0
2017-11-17T05:29:48.469Z,0
2017-11-17T05:30:29.355Z,0
2017-11-17T05:31:09.798Z,0
2017-11-17T05:31:50.817Z,0
2017-11-17T05:32:30.917Z,0
2017-11-17T05:33:11.500Z,0
2017-11-17T05:33:52.012Z,0
2017-11-17T05:34:32.709Z,0
2017-11-17T05:35:12.997Z,0
2017-11-17T05:35:53.467Z,0
2017-11-17T05:36:34.284Z,0
2017-11-17T05:37:15.207Z,0
2017-11-17T05:37:55.761Z,0
2017-11-17T05:38:36.280Z,0
2017-11-17T05:39:16.818Z,0
2017-11-17T05:39:57.354Z,0
2017-11-17T05:40:37.682Z,0
2017-11-17T05:41:18.121Z,0
2017-11-17T05:41:58.710Z,0
2017-11-17T05:42:39.050Z,0
2017-11-17T05:43:19.448Z,0
2017-11-17T05:44:00.029Z,0
2017-11-17T05:44:41.392Z,0
2017-11-17T05:45:21.776Z,0
2017-11-17T05:46:02.575Z,0
2017-11-17T05:46:42.943Z,0
2017-11-17T05:47:23.416Z,0
2017-11-17T05:48:03.861Z,0
2017-11-17T05:48:44.415Z,0
2017-11-17T05:49:24.960Z,0
2017-11-17T05:50:05.485Z,0
2017-11-17T05:50:45.958Z,0
2017-11-17T05:51:26.331Z,0
2017-11-17T05:52:06.996Z,0
2017-11-17T05:52:48.701Z,0
2017-11-17T05:53:29.612Z,0
2017-11-17T05:54:10.668Z,0
2017-11-17T05:54:51.389Z,0
2017-11-17T05:55:32.413Z,0
2017-11-17T05:56:13.380Z,0
2017-11-17T05:56:53.599Z,0
2017-11-17T05:57:33.997Z,0
2017-11-17T05:58:15.284Z,0
2017-11-17T05:58:55.150Z,0
2017-11-17T05:59:35.597Z,0
2017-11-17T06:00:16.220Z,0
2017-11-17T06:00:56.659Z,0
2017-11-17T06:03:16.145Z,0
2017-11-17T06:03:56.627Z,0
2017-11-17T06:04:37.093Z,0
2017-11-17T06:05:17.531Z,0
2017-11-17T06:05:58.018Z,0
2017-11-17T06:06:38.422Z,0
2017-11-17T06:07:18.901Z,0
2017-11-17T06:07:59.302Z,0
2017-11-17T06:08:40.258Z,0
2017-11-17T06:09:26.217Z,0
2017-11-17T06:10:09.667Z,0
2017-11-17T06:11:00.932Z,0
2017-11-17T06:11:47.611Z,0
2017-11-17T06:12:54.233Z,0
2017-11-17T06:15:26.492Z,0
2017-11-17T06:16:06.993Z,0
2017-11-17T06:16:47.376Z,0
2017-11-17T06:17:27.923Z,0
2017-11-17T06:18:08.306Z,0
2017-11-17T06:18:48.701Z,0
2017-11-17T06:19:29.138Z,0
2017-11-17T06:20:09.608Z,0
2017-11-17T06:20:49.959Z,0
2017-11-17T06:21:30.420Z,0
2017-11-17T06:22:10.893Z,0
2017-11-17T06:22:51.406Z,0
2017-11-17T06:23:31.758Z,0
2017-11-17T06:24:12.209Z,0
2017-11-17T06:24:52.647Z,0
2017-11-17T06:25:33.336Z,0
2017-11-17T06:26:13.799Z,0
2017-11-17T06:26:54.342Z,0
2017-11-17T06:27:34.836Z,0
2017-11-17T06:28:15.255Z,0
2017-11-17T06:28:55.705Z,0
2017-11-17T06:29:36.103Z,4
2017-11-17T06:30:16.494Z,4
2017-11-17T06:30:56.967Z,4
2017-11-17T06:31:37.359Z,4
2017-11-17T06:32:17.848Z,0
2017-11-17T06:32:58.464Z,0
2017-11-17T06:33:38.784Z,4
2017-11-17T06:34:19.260Z,4
2017-11-17T06:34:59.831Z,4
2017-11-17T06:35:40.383Z,4
2017-11-17T06:36:20.805Z,4
2017-11-17T06:37:01.468Z,8
2017-11-17T06:37:42.206Z,8
2017-11-17T06:38:22.890Z,8
2017-11-17T06:39:03.804Z,12
2017-11-17T06:39:44.195Z,8
2017-11-17T06:40:24.767Z,12
2017-11-17T06:41:05.327Z,12
2017-11-17T06:41:45.862Z,16
2017-11-17T06:42:26.430Z,12
2017-11-17T06:43:06.967Z,16
2017-11-17T06:43:47.570Z,16
2017-11-17T06:44:29.463Z,16
2017-11-17T06:45:09.760Z,16
2017-11-17T06:45:50.527Z,16
2017-11-17T06:46:37.278Z,16
2017-11-17T06:49:15.961Z,12
2017-11-17T06:54:07.998Z,16
2017-11-17T06:54:49.739Z,20
2017-11-17T06:55:31.099Z,20
2017-11-17T06:56:10.731Z,20
2017-11-17T06:56:52.339Z,20
2017-11-17T06:57:33.427Z,16
2017-11-17T06:58:13.723Z,20
2017-11-17T06:58:54.436Z,20
2017-11-17T06:59:36.013Z,24
2017-11-17T07:00:16.300Z,28
2017-11-17T07:00:56.983Z,28
2017-11-17T07:01:39.665Z,32
2017-11-17T07:02:20.336Z,36
2017-11-17T07:03:01.017Z,44
2017-11-17T07:06:59.696Z,52
2017-11-17T07:07:43.500Z,56
2017-11-17T07:12:07.728Z,92
2017-11-17T07:13:05.237Z,104
2017-11-17T07:14:02.982Z,108
2017-11-17T07:14:43.110Z,108
2017-11-17T07:15:23.772Z,112
2017-11-17T07:16:04.532Z,116
2017-11-17T07:16:46.724Z,112
2017-11-17T07:17:27.382Z,116
2017-11-17T10:45:24.592Z,1300
2017-11-17T10:46:24.086Z,1172
2017-11-17T10:47:21.239Z,1132
2017-11-17T10:48:21.737Z,1204
2017-11-17T10:49:20.583Z,1296
2017-11-17T10:50:22.024Z,1312
2017-11-17T10:51:19.417Z,1256
2017-11-17T10:52:20.727Z,1240
2017-11-17T10:53:21.234Z,1328
2017-11-17T10:56:26.443Z,1304
2017-11-17T10:57:25.523Z,1340
2017-11-17T10:58:31.009Z,1356
2017-11-17T11:01:43.329Z,1328
2017-11-17T11:12:39.851Z,1196
2017-11-17T11:18:25.371Z,1252
2017-11-17T11:19:21.346Z,1240
2017-11-17T11:20:03.463Z,1236
2017-11-17T11:20:54.626Z,1240
2017-11-17T11:21:41.712Z,1244
2017-11-17T11:36:20.863Z,1172
2017-11-17T11:38:24.633Z,1112
2017-11-17T11:39:05.519Z,912
2017-11-17T11:39:47.667Z,992
2017-11-17T11:40:32.077Z,988
2017-11-17T11:41:12.511Z,892
2017-11-17T11:41:53.024Z,868
2017-11-17T11:42:33.307Z,896
2017-11-17T11:43:14.742Z,1188
2017-11-17T11:45:55.163Z,1072
2017-11-17T11:46:34.981Z,1224
2017-11-17T11:47:15.670Z,1324
2017-11-17T11:47:56.095Z,1476
2017-11-17T11:48:36.627Z,1664
2017-11-17T11:49:17.365Z,1796
2017-11-17T11:49:57.800Z,1860
2017-11-17T11:50:39.198Z,1812
2017-11-17T11:51:19.545Z,1748
2017-11-17T11:52:01.078Z,1660
2017-11-17T11:52:43.489Z,1456
2017-11-17T11:53:24.022Z,1388
2017-11-17T11:54:04.588Z,1300
2017-11-17T11:54:45.142Z,1216
2017-11-17T11:55:25.838Z,1420
2017-11-17T11:56:06.369Z,1360
2017-11-17T11:56:47.346Z,1312
2017-11-17T11:57:30.286Z,1264
2017-11-17T11:58:09.238Z,1200
2017-11-17T11:58:52.326Z,1148
2017-11-17T11:59:33.553Z,1100
2017-11-17T12:00:13.965Z,1068
2017-11-17T12:00:55.325Z,1064
2017-11-17T12:01:37.173Z,1060
2017-11-17T12:02:18.168Z,984
2017-11-17T12:02:58.847Z,960
2017-11-17T12:03:40.216Z,956
2017-11-17T12:04:20.696Z,832
2017-11-17T12:05:01.112Z,816
2017-11-17T12:05:41.476Z,952
2017-11-17T12:07:59.010Z,764
2017-11-17T12:08:39.631Z,652
2017-11-17T12:09:20.314Z,640
2017-11-17T12:10:00.909Z,632
2017-11-17T12:10:41.195Z,632
2017-11-17T12:11:21.614Z,632
2017-11-17T12:12:02.204Z,648
2017-11-17T12:12:42.626Z,656
2017-11-17T12:13:24.096Z,668
2017-11-17T12:14:03.736Z,664
2017-11-17T12:14:44.523Z,656
2017-11-17T12:15:26.214Z,648
2017-11-17T12:16:06.293Z,644
2017-11-17T12:16:46.624Z,636
2017-11-17T12:17:27.069Z,632
2017-11-17T12:18:07.771Z,628
2017-11-17T12:18:48.613Z,616
2017-11-17T12:19:29.183Z,612
2017-11-17T12:20:10.514Z,612
2017-11-17T12:20:51.131Z,612
2017-11-17T12:21:31.886Z,608
2017-11-17T12:22:12.086Z,604
2017-11-17T12:22:52.915Z,600
2017-11-17T12:23:33.692Z,604
2017-11-17T12:24:15.311Z,604
2017-11-17T12:24:55.947Z,608
2017-11-17T12:25:36.582Z,616
2017-11-17T12:26:17.147Z,616
2017-11-17T12:26:57.848Z,620
2017-11-17T12:27:38.390Z,620
2017-11-17T12:28:21.709Z,624
2017-11-17T12:33:37.243Z,628
2017-11-17T12:34:17.663Z,632
2017-11-17T12:34:59.606Z,640
2017-11-17T12:35:40.157Z,644
2017-11-17T12:36:37.479Z,648
2017-11-17T12:37:19.814Z,656
2017-11-17T12:38:02.137Z,664
2017-11-17T12:38:42.511Z,668
2017-11-17T12:39:26.296Z,672
2017-11-17T12:40:09.790Z,680
2017-11-17T12:40:49.565Z,692
2017-11-17T12:41:33.513Z,696
2017-11-17T12:42:21.515Z,688
2017-11-17T12:44:58.258Z,696
2017-11-17T12:45:57.899Z,700
2017-11-17T12:47:12.110Z,732
2017-11-17T12:48:12.023Z,788
2017-11-17T12:51:24.835Z,944
2017-11-17T12:54:25.681Z,1028
2017-11-17T12:55:27.594Z,964
2017-11-17T12:58:05.622Z,848
2017-11-17T12:59:10.841Z,812
2017-11-17T13:00:12.989Z,756
2017-11-17T13:01:25.002Z,696
2017-11-17T13:02:33.943Z,680
2017-11-17T13:06:31.835Z,648
2017-11-17T13:07:33.323Z,648
2017-11-17T13:08:30.486Z,648
2017-11-17T13:09:10.309Z,664
2017-11-17T13:09:50.801Z,668
2017-11-17T13:10:31.526Z,680
2017-11-17T13:11:12.077Z,680
2017-11-17T13:11:52.438Z,684
2017-11-17T13:12:33.163Z,688
2017-11-17T13:13:13.635Z,680
2017-11-17T13:13:54.037Z,676
2017-11-17T13:14:34.411Z,668
2017-11-17T13:15:14.955Z,676
2017-11-17T13:15:55.524Z,684
2017-11-17T13:16:36.070Z,676
2017-11-17T13:17:16.630Z,676
2017-11-17T13:17:57.166Z,680
2017-11-17T13:18:37.576Z,684
2017-11-17T13:19:18.270Z,680
2017-11-17T13:19:58.718Z,672
2017-11-17T13:20:39.207Z,672
2017-11-17T13:21:19.709Z,668
2017-11-17T13:22:00.401Z,672
2017-11-17T13:22:41.728Z,680
2017-11-17T13:23:22.321Z,684
2017-11-17T13:24:03.899Z,684
2017-11-17T13:24:44.343Z,668
2017-11-17T13:25:24.870Z,656
2017-11-17T13:26:05.345Z,648
2017-11-17T13:26:45.915Z,652
2017-11-17T13:27:26.345Z,652
2017-11-17T13:28:06.762Z,656
2017-11-17T13:28:47.185Z,664
2017-11-17T13:29:27.738Z,676
2017-11-17T13:30:08.186Z,684
2017-11-17T13:30:48.881Z,688
2017-11-17T13:31:29.399Z,700
2017-11-17T13:32:09.873Z,700
2017-11-17T13:32:50.311Z,704
2017-11-17T13:33:30.786Z,704
2017-11-17T13:34:11.246Z,700
2017-11-17T13:34:51.586Z,704
2017-11-17T13:35:32.166Z,704
2017-11-17T13:36:16.569Z,700
2017-11-17T13:37:09.899Z,704
2017-11-17T13:37:53.290Z,704
2017-11-17T13:38:37.150Z,704
2017-11-17T13:39:17.611Z,704
2017-11-17T13:42:13.317Z,704
2017-11-17T13:43:13.648Z,712
2017-11-17T13:44:14.841Z,716
2017-11-17T13:45:13.812Z,712
2017-11-17T13:46:12.110Z,708
2017-11-17T13:47:09.553Z,696
2017-11-17T13:48:08.344Z,688
2017-11-17T13:49:06.456Z,676
2017-11-17T13:50:04.450Z,668
2017-11-17T13:51:04.262Z,668
2017-11-17T13:52:03.044Z,656
2017-11-17T13:53:01.607Z,648
2017-11-17T13:54:03.396Z,644
2017-11-17T13:55:04.942Z,640
2017-11-17T13:56:02.175Z,656
2017-11-17T13:57:04.703Z,672
2017-11-17T13:58:03.354Z,672
2017-11-17T13:59:01.921Z,664
2017-11-17T14:00:03.387Z,648
2017-11-17T14:01:10.190Z,644
2017-11-17T14:02:13.175Z,632
2017-11-17T14:05:04.943Z,612
2017-11-17T14:06:02.207Z,628
2017-11-17T14:06:57.856Z,648
2017-11-17T14:07:54.635Z,660
2017-11-17T14:08:55.188Z,676
2017-11-17T14:09:53.678Z,680
2017-11-17T14:10:57.230Z,672
2017-11-17T14:11:59.828Z,664
2017-11-17T14:13:07.055Z,688
2017-11-17T14:14:09.709Z,692
2017-11-17T14:15:05.434Z,688
2017-11-17T14:16:00.132Z,680
2017-11-17T14:17:00.095Z,672
2017-11-17T14:18:00.670Z,676
2017-11-17T14:18:58.395Z,676
2017-11-17T14:21:28.132Z,648
2017-11-17T14:22:08.473Z,636
2017-11-17T14:22:48.888Z,624
2017-11-17T14:23:29.401Z,604
2017-11-17T14:24:09.797Z,584
2017-11-17T14:24:50.286Z,568
2017-11-17T14:25:30.706Z,556
2017-11-17T14:26:11.195Z,548
2017-11-17T14:26:51.741Z,536
2017-11-17T14:27:32.135Z,528
2017-11-17T14:28:12.631Z,520
2017-11-17T14:28:53.076Z,520
2017-11-17T14:29:34.021Z,532
2017-11-17T14:30:14.643Z,544
2017-11-17T14:30:58.867Z,548
2017-11-17T14:31:39.429Z,548
2017-11-17T14:32:19.874Z,544
2017-11-17T14:33:00.187Z,552
2017-11-17T14:33:44.099Z,556
2017-11-17T14:34:25.436Z,568
2017-11-17T14:36:50.650Z,608
2017-11-17T14:37:51.213Z,640
2017-11-17T14:38:50.457Z,656
2017-11-17T14:39:48.390Z,672
2017-11-17T14:40:49.145Z,680
2017-11-17T14:42:09.853Z,696
2017-11-17T14:43:10.570Z,768
2017-11-17T14:44:10.392Z,820
2017-11-17T14:45:10.458Z,836
2017-11-17T14:46:10.015Z,836
2017-11-17T14:47:05.466Z,828
2017-11-17T14:48:05.377Z,824
2017-11-17T14:49:06.892Z,836
2017-11-17T14:50:17.823Z,844
2017-11-17T14:51:17.557Z,848
2017-11-17T14:52:18.940Z,824
2017-11-17T14:53:20.508Z,824
2017-11-17T14:55:31.599Z,820
2017-11-17T14:56:31.679Z,816
2017-11-17T14:57:30.407Z,804
2017-11-17T14:58:45.365Z,796
2017-11-17T14:59:49.073Z,792
2017-11-17T15:00:53.878Z,840
2017-11-17T15:02:04.013Z,880
2017-11-17T15:03:00.244Z,852
2017-11-17T15:04:12.237Z,800
2017-11-17T15:05:13.613Z,768
2017-11-17T15:06:15.203Z,808
2017-11-17T15:07:15.725Z,788
2017-11-17T15:10:14.459Z,472
2017-11-17T15:14:27.995Z,264
2017-11-17T15:15:43.105Z,252
2017-11-17T15:16:46.915Z,244
2017-11-17T15:19:31.692Z,220
2017-11-17T15:20:12.141Z,212
2017-11-17T15:20:52.556Z,208
2017-11-17T15:21:33.027Z,204
2017-11-17T15:22:13.442Z,192
2017-11-17T15:22:53.861Z,188
2017-11-17T15:23:34.270Z,184
2017-11-17T15:24:14.716Z,176
2017-11-17T15:24:55.134Z,168
2017-11-17T15:25:35.599Z,164
2017-11-17T15:26:15.979Z,160
2017-11-17T15:26:56.418Z,152
2017-11-17T15:27:36.827Z,148
2017-11-17T15:28:17.265Z,140
2017-11-17T15:28:57.654Z,136
2017-11-17T15:29:38.108Z,132
2017-11-17T15:30:18.497Z,124
2017-11-17T15:30:59.033Z,120
2017-11-17T15:31:39.374Z,116
2017-11-17T15:32:19.842Z,112
2017-11-17T15:33:00.292Z,104
2017-11-17T15:33:40.646Z,104
2017-11-17T15:34:21.049Z,100
2017-11-17T15:35:01.460Z,92
2017-11-17T15:35:41.971Z,88
2017-11-17T15:36:22.356Z,88
2017-11-17T15:37:02.749Z,84
2017-11-17T15:37:43.154Z,80
2017-11-17T15:38:23.549Z,72
2017-11-17T15:39:03.902Z,72
2017-11-17T15:39:44.325Z,64
2017-11-17T15:40:24.756Z,64
2017-11-17T15:41:05.154Z,56
2017-11-17T15:41:45.554Z,56
2017-11-17T15:42:25.928Z,52
2017-11-17T15:43:06.289Z,52
2017-11-17T15:43:46.669Z,48
2017-11-17T15:44:27.063Z,44
2017-11-17T15:45:07.570Z,44
2017-11-17T15:45:47.930Z,40
2017-11-17T15:46:28.315Z,36
2017-11-17T15:47:08.762Z,32
2017-11-17T15:47:49.107Z,32
2017-11-17T15:48:29.583Z,28
2017-11-17T15:49:09.961Z,28
2017-11-17T15:49:50.413Z,24
2017-11-17T15:50:30.844Z,20
2017-11-17T15:51:11.210Z,24
2017-11-17T15:51:51.632Z,20
2017-11-17T15:52:32.047Z,16
2017-11-17T15:53:12.414Z,16
2017-11-17T15:53:52.862Z,12
2017-11-17T15:54:33.231Z,16
2017-11-17T15:55:13.646Z,12
2017-11-17T15:55:54.043Z,12
2017-11-17T15:56:34.446Z,8
2017-11-17T15:57:14.821Z,8
2017-11-17T15:57:55.288Z,8
2017-11-17T15:58:35.721Z,8
2017-11-17T15:59:16.104Z,4
2017-11-17T15:59:56.549Z,4
2017-11-17T16:00:36.893Z,4
2017-11-17T16:01:17.341Z,4
2017-11-17T16:01:57.711Z,4
2017-11-17T16:02:38.164Z,4
2017-11-17T16:03:18.513Z,4